Time;durP1;ratioP1;P1;durP2;ratioP2;P2;SDS_P1;SDS_P2;PMS_P1;PMS_P2;Temp;Humidity;BMP_temperature;BMP_pressure;BME280_temperature;BME280_humidity;BME280_pressure;Samples;Min_cycle;Max_cycle;Signal;HPM_P1;HPM_P2
2021/04/03 00:01:32;;;;;;;12.13;1.92;;;6.80;99.90;;;;;;5042338;28;20443;-78
2021/04/03 00:03:57;;;;;;;12.48;1.80;;;6.80;99.90;;;;;;5051456;28;20057;-78
2021/04/03 00:06:23;;;;;;;11.52;3.47;;;6.80;99.90;;;;;;5055531;28;20030;-78
2021/04/03 00:08:49;;;;;;;13.82;1.65;;;6.80;99.90;;;;;;5048348;28;20041;-77
2021/04/03 00:11:20;;;;;;;11.02;2.00;;;6.80;99.90;;;;;;5044728;28;20081;-78
2021/04/03 00:13:46;;;;;;;10.82;1.88;;;6.80;99.90;;;;;;5040451;28;20048;-77
2021/04/03 00:16:11;;;;;;;11.82;1.80;;;6.80;99.90;;;;;;5036790;28;20025;-78
2021/04/03 00:18:37;;;;;;;16.27;3.45;;;6.90;99.90;;;;;;5036739;28;20021;-78
2021/04/03 00:21:03;;;;;;;15.82;3.95;;;6.90;99.90;;;;;;5035465;28;20482;-78
2021/04/03 00:23:29;;;;;;;15.35;2.03;;;6.90;99.90;;;;;;5035222;28;20045;-78
2021/04/03 00:25:55;;;;;;;7.43;2.20;;;6.80;99.90;;;;;;5051328;28;20029;-78
2021/04/03 00:28:20;;;;;;;19.60;1.80;;;6.80;99.90;;;;;;5035194;28;20038;-77
2021/04/03 00:30:46;;;;;;;11.52;2.80;;;6.80;99.90;;;;;;5034777;28;20021;-76
2021/04/03 00:33:12;;;;;;;16.30;1.80;;;6.80;99.90;;;;;;5032253;28;20049;-77
2021/04/03 00:35:40;;;;;;;14.07;2.03;;;6.90;99.90;;;;;;5040213;28;20021;-79
2021/04/03 00:38:07;;;;;;;11.52;2.00;;;6.90;99.90;;;;;;5034883;28;20037;-79
2021/04/03 00:40:40;;;;;;;15.00;1.90;;;6.90;99.90;;;;;;5033465;28;20021;-78
2021/04/03 00:43:12;;;;;;;11.82;2.38;;;6.90;99.90;;;;;;5048807;28;20044;-78
2021/04/03 00:45:37;;;;;;;14.80;1.73;;;6.90;99.90;;;;;;5032162;28;20029;-77
2021/04/03 00:48:04;;;;;;;10.35;1.92;;;6.90;99.90;;;;;;5034620;28;20022;-78
2021/04/03 00:50:34;;;;;;;15.63;2.00;;;6.90;99.90;;;;;;5033675;28;20026;-76
2021/04/03 00:52:59;;;;;;;23.27;3.22;;;6.90;99.90;;;;;;5033986;28;20030;-78
2021/04/03 00:55:26;;;;;;;16.60;3.33;;;6.90;99.90;;;;;;5034160;28;20171;-78
2021/04/03 00:57:52;;;;;;;14.38;2.13;;;6.90;99.90;;;;;;5033017;28;20030;-78
2021/04/03 01:00:18;;;;;;;20.38;2.78;;;6.90;99.90;;;;;;5034698;28;20072;-77
2021/04/03 01:02:44;;;;;;;19.17;2.20;;;6.90;99.90;;;;;;5032673;28;20470;-78
2021/04/03 01:05:19;;;;;;;23.73;2.20;;;6.90;99.90;;;;;;5034345;28;20473;-78
2021/04/03 01:07:45;;;;;;;20.65;3.15;;;7.00;99.90;;;;;;5034681;28;20079;-78
2021/04/03 01:10:17;;;;;;;17.88;3.83;;;7.00;99.90;;;;;;5032928;28;20080;-78
2021/04/03 01:12:54;;;;;;;15.00;2.55;;;7.00;99.90;;;;;;5032701;28;20113;-77
2021/04/03 01:15:48;;;;;;;8.63;1.48;;;7.00;99.90;;;;;;5034162;28;20367;-78
2021/04/03 01:18:35;;;;;;;17.02;2.00;;;6.90;99.90;;;;;;5031436;28;20048;-78
2021/04/03 01:21:23;;;;;;;28.17;2.35;;;7.00;99.90;;;;;;5032961;28;20037;-77
2021/04/03 01:24:01;;;;;;;;;;;7.10;99.90;;;;;;5034422;28;20017;-78
2021/04/03 01:26:57;;;;;;;19.73;3.95;;;7.00;99.90;;;;;;5034651;28;19908;-78
2021/04/03 01:29:28;;;;;;;16.67;2.50;;;7.10;99.90;;;;;;5030866;28;20478;-78
2021/04/03 01:31:56;;;;;;;15.23;2.13;;;6.90;99.90;;;;;;5035285;28;20048;-77
2021/04/03 01:34:27;;;;;;;18.33;2.85;;;6.90;99.90;;;;;;5053770;28;20017;-76
2021/04/03 01:36:59;;;;;;;23.88;2.30;;;7.00;99.90;;;;;;5051471;28;20029;-77
2021/04/03 01:39:28;;;;;;;26.70;3.35;;;7.00;99.90;;;;;;5053020;28;20020;-76
2021/04/03 01:41:57;;;;;;;23.35;4.50;;;7.00;99.90;;;;;;5055638;28;20025;-74
2021/04/03 01:44:30;;;;;;;27.50;2.90;;;6.90;99.90;;;;;;5064577;28;20505;-74
2021/04/03 01:46:57;;;;;;;25.98;3.15;;;6.90;99.90;;;;;;5066186;28;20029;-74
2021/04/03 01:49:24;;;;;;;10.07;1.83;;;6.90;99.90;;;;;;5040955;28;20026;-76
2021/04/03 01:51:51;;;;;;;13.18;2.20;;;6.90;99.90;;;;;;5036609;28;20018;-76
2021/04/03 01:54:19;;;;;;;27.10;4.07;;;7.10;99.90;;;;;;5035153;28;20057;-77
2021/04/03 01:56:46;;;;;;;;;;;7.10;99.90;;;;;;5034499;28;20029;-78
2021/04/03 01:59:14;;;;;;;16.63;2.58;;;7.00;99.90;;;;;;5033371;28;19909;-78
2021/04/03 02:01:42;;;;;;;31.27;3.50;;;7.00;99.90;;;;;;5033999;28;20390;-79
2021/04/03 02:04:09;;;;;;;;;;;7.00;99.90;;;;;;5033725;28;20045;-77
2021/04/03 02:06:37;;;;;;;14.48;2.42;;;6.90;99.90;;;;;;5032574;28;19913;-78
2021/04/03 02:09:05;;;;;;;16.08;2.75;;;7.00;99.90;;;;;;5032705;28;20029;-77
2021/04/03 02:11:33;;;;;;;24.35;3.10;;;7.10;99.90;;;;;;5033717;28;20036;-77
2021/04/03 02:14:00;;;;;;;25.88;2.65;;;7.10;99.90;;;;;;5032689;28;20026;-78
2021/04/03 02:16:29;;;;;;;18.40;4.60;;;7.10;99.90;;;;;;5031385;28;20470;-77
2021/04/03 02:18:56;;;;;;;16.92;2.75;;;7.10;99.90;;;;;;5034013;28;20107;-77
2021/04/03 02:21:22;;;;;;;19.85;2.33;;;7.10;99.90;;;;;;5032055;28;20045;-79
2021/04/03 02:23:49;;;;;;;15.77;2.83;;;7.10;99.90;;;;;;5031663;28;20117;-78
2021/04/03 02:26:14;;;;;;;14.88;2.13;;;7.10;99.90;;;;;;5033188;28;20425;-77
2021/04/03 02:28:40;;;;;;;14.15;2.10;;;7.10;99.90;;;;;;5031701;28;20211;-75
2021/04/03 02:31:06;;;;;;;16.30;2.15;;;7.10;99.90;;;;;;5031719;28;20469;-77
2021/04/03 02:33:32;;;;;;;22.27;3.75;;;7.20;99.90;;;;;;5032795;28;20101;-78
2021/04/03 02:35:57;;;;;;;16.13;2.78;;;7.20;99.90;;;;;;5033213;28;20449;-77
2021/04/03 02:38:23;;;;;;;11.57;2.90;;;7.20;99.90;;;;;;5033605;28;20125;-78
2021/04/03 02:40:49;;;;;;;12.23;2.08;;;7.20;99.90;;;;;;5031246;28;20128;-78
2021/04/03 02:43:21;;;;;;;13.63;1.98;;;7.20;99.90;;;;;;5032509;28;20037;-78
2021/04/03 02:46:20;;;;;;;16.65;2.38;;;7.30;99.90;;;;;;5033139;28;20091;-77
2021/04/03 02:48:53;;;;;;;19.52;2.13;;;7.30;99.90;;;;;;5008685;28;20172;-78
2021/04/03 02:51:27;;;;;;;11.63;2.05;;;7.40;99.90;;;;;;5031239;28;20021;-77
2021/04/03 02:53:53;;;;;;;28.55;2.67;;;7.40;99.90;;;;;;5032920;28;20029;-77
2021/04/03 02:56:20;;;;;;;16.02;2.20;;;7.30;99.90;;;;;;5048649;28;20116;-76
2021/04/03 02:58:48;;;;;;;23.02;2.08;;;7.30;99.90;;;;;;5033183;28;20048;-79
2021/04/03 03:01:15;;;;;;;25.33;2.95;;;7.30;99.90;;;;;;5035501;28;20064;-77
2021/04/03 03:03:42;;;;;;;16.27;2.35;;;7.30;99.90;;;;;;5051163;28;20046;-78
2021/04/03 03:06:10;;;;;;;7.22;2.58;;;7.30;99.90;;;;;;5055166;28;20025;-76
2021/04/03 03:08:37;;;;;;;;;;;7.30;99.90;;;;;;5058330;28;20029;-75
2021/04/03 03:11:03;;;;;;;14.10;2.08;;;7.30;99.90;;;;;;5060327;28;19920;-76
2021/04/03 03:13:32;;;;;;;22.98;3.45;;;7.20;99.90;;;;;;5059754;28;20060;-74
2021/04/03 03:16:03;;;;;;;19.10;2.28;;;7.20;99.90;;;;;;5056920;28;20056;-75
2021/04/03 03:18:29;;;;;;;21.33;3.28;;;7.20;99.90;;;;;;5042897;28;20033;-77
2021/04/03 03:20:55;;;;;;;16.85;3.47;;;7.30;99.90;;;;;;5041293;28;20033;-78
2021/04/03 03:23:21;;;;;;;20.75;2.67;;;7.30;99.90;;;;;;5037591;28;20084;-77
2021/04/03 03:25:47;;;;;;;33.05;3.05;;;7.30;99.90;;;;;;5037193;28;20060;-77
2021/04/03 03:28:13;;;;;;;22.17;4.90;;;7.30;99.90;;;;;;5035377;28;20030;-77
2021/04/03 03:30:38;;;;;;;25.30;2.83;;;7.30;99.90;;;;;;5036433;28;20064;-76
2021/04/03 03:33:04;;;;;;;14.38;2.38;;;7.30;99.90;;;;;;5033453;28;20025;-77
2021/04/03 03:35:30;;;;;;;17.88;3.10;;;7.30;99.90;;;;;;5034562;28;20041;-78
2021/04/03 03:37:57;;;;;;;19.10;2.55;;;7.40;99.90;;;;;;5033887;28;20032;-77
2021/04/03 03:40:23;;;;;;;26.77;2.85;;;7.40;99.90;;;;;;5035795;28;20025;-78
2021/04/03 03:42:50;;;;;;;25.67;3.58;;;7.40;99.90;;;;;;5034966;28;20022;-77
2021/04/03 03:45:17;;;;;;;24.17;2.80;;;7.40;99.90;;;;;;5034577;28;20021;-76
2021/04/03 03:47:43;;;;;;;19.02;2.88;;;7.30;99.90;;;;;;5035223;28;20086;-78
2021/04/03 03:50:09;;;;;;;20.77;2.88;;;7.30;99.90;;;;;;5033988;28;20022;-77
2021/04/03 03:52:35;;;;;;;21.65;2.58;;;7.40;99.90;;;;;;5034927;28;20032;-78
2021/04/03 03:55:02;;;;;;;41.80;5.55;;;7.30;99.90;;;;;;5031027;28;20037;-77
2021/04/03 03:57:28;;;;;;;24.30;2.88;;;7.30;99.90;;;;;;5033625;28;20028;-77
2021/04/03 03:59:53;;;;;;;23.42;2.70;;;7.30;99.90;;;;;;5035031;28;20444;-77
2021/04/03 04:02:19;;;;;;;24.50;2.88;;;7.30;99.90;;;;;;5033066;28;20374;-77
2021/04/03 04:04:45;;;;;;;22.05;4.90;;;7.20;99.90;;;;;;5035128;28;20091;-78
2021/04/03 04:07:10;;;;;;;27.52;2.70;;;7.30;99.90;;;;;;5034045;28;20456;-78
2021/04/03 04:09:36;;;;;;;28.90;3.95;;;7.20;99.90;;;;;;5034743;28;20029;-77
2021/04/03 04:12:06;;;;;;;18.75;3.97;;;7.20;99.90;;;;;;5031492;28;20022;-78
2021/04/03 04:14:33;;;;;;;37.63;4.07;;;7.30;99.90;;;;;;5035108;28;20025;-78
2021/04/03 04:16:59;;;;;;;22.58;3.58;;;7.30;99.90;;;;;;5034185;28;20390;-78
2021/04/03 04:19:24;;;;;;;23.15;4.07;;;7.20;99.90;;;;;;5032574;28;20041;-78
2021/04/03 04:21:50;;;;;;;18.55;2.75;;;7.20;99.90;;;;;;5034464;28;20029;-78
2021/04/03 04:24:15;;;;;;;22.73;3.17;;;7.30;99.90;;;;;;5033038;28;20053;-78
2021/04/03 04:26:41;;;;;;;13.32;1.95;;;7.30;99.90;;;;;;5034697;28;20032;-78
2021/04/03 04:29:07;;;;;;;23.70;3.58;;;7.30;99.90;;;;;;5034333;28;20064;-79
2021/04/03 04:31:32;;;;;;;19.98;2.80;;;7.30;99.90;;;;;;5034558;28;20017;-78
2021/04/03 04:33:58;;;;;;;42.20;4.00;;;7.30;99.90;;;;;;5032906;28;20371;-79
2021/04/03 04:36:24;;;;;;;27.63;5.15;;;7.30;99.90;;;;;;5033730;28;20385;-78
2021/04/03 04:38:49;;;;;;;23.60;4.13;;;7.20;99.90;;;;;;5033412;28;20026;-79
2021/04/03 04:41:15;;;;;;;21.20;3.03;;;7.20;99.90;;;;;;5034195;28;20466;-78
2021/04/03 04:43:40;;;;;;;20.63;3.58;;;7.10;99.90;;;;;;5034619;28;20025;-80
2021/04/03 04:46:06;;;;;;;26.00;3.65;;;7.00;99.90;;;;;;5033445;28;20053;-79
2021/04/03 04:48:31;;;;;;;29.40;5.13;;;7.00;99.90;;;;;;5035504;28;20029;-79
2021/04/03 04:50:57;;;;;;;27.30;4.57;;;6.90;99.90;;;;;;5034871;28;20393;-78
2021/04/03 04:53:41;;;;;;;23.60;5.05;;;6.90;99.90;;;;;;5034057;28;20033;-78
2021/04/03 04:56:07;;;;;;;25.73;3.80;;;7.00;99.90;;;;;;5049242;28;20025;-78
2021/04/03 04:58:32;;;;;;;27.88;3.40;;;6.90;99.90;;;;;;5033691;28;20083;-78
2021/04/03 05:00:58;;;;;;;20.67;4.15;;;6.80;99.90;;;;;;5034246;28;20126;-79
2021/04/03 05:03:23;;;;;;;34.83;4.70;;;6.80;99.90;;;;;;5034056;28;20049;-79
2021/04/03 05:05:49;;;;;;;18.83;2.67;;;6.70;99.90;;;;;;5033156;28;20060;-78
2021/04/03 05:08:14;;;;;;;33.00;3.78;;;6.60;99.90;;;;;;5028300;28;20026;-79
2021/04/03 05:10:40;;;;;;;26.63;3.40;;;6.60;99.90;;;;;;5027265;28;20032;-79
2021/04/03 05:13:06;;;;;;;22.70;3.60;;;6.60;99.90;;;;;;5033908;28;20104;-79
2021/04/03 05:15:32;;;;;;;26.05;4.22;;;6.60;99.90;;;;;;5033310;28;20025;-79
2021/04/03 05:17:57;;;;;;;29.02;3.35;;;6.50;99.90;;;;;;5033404;28;20030;-79
2021/04/03 05:20:23;;;;;;;32.10;3.20;;;6.50;99.90;;;;;;5032359;28;20038;-80
2021/04/03 05:22:50;;;;;;;23.80;3.22;;;6.50;99.90;;;;;;5033559;28;20084;-79
2021/04/03 05:25:15;;;;;;;24.65;4.20;;;6.50;99.90;;;;;;5033671;28;20116;-79
2021/04/03 05:27:41;;;;;;;34.97;3.25;;;6.50;99.90;;;;;;5033424;28;20021;-79
2021/04/03 05:30:08;;;;;;;26.98;4.75;;;6.40;99.90;;;;;;5032084;28;20446;-79
2021/04/03 05:32:34;;;;;;;32.10;4.18;;;6.40;99.90;;;;;;5033041;28;20022;-79
2021/04/03 05:35:00;;;;;;;26.02;4.15;;;6.50;99.90;;;;;;5032652;28;20026;-79
2021/04/03 05:37:26;;;;;;;20.65;4.05;;;6.40;99.90;;;;;;5031879;28;20394;-79
2021/04/03 05:39:51;;;;;;;30.67;4.63;;;6.40;99.90;;;;;;5033055;28;20025;-80
2021/04/03 05:42:19;;;;;;;31.00;4.10;;;6.50;99.90;;;;;;5031842;28;20038;-77
2021/04/03 05:44:45;;;;;;;21.95;4.10;;;6.50;99.90;;;;;;5033047;28;20382;-81
2021/04/03 05:47:12;;;;;;;22.77;3.15;;;6.50;99.90;;;;;;5033037;28;20547;-78
2021/04/03 05:49:39;;;;;;;34.50;5.03;;;6.50;99.90;;;;;;5032793;28;20075;-79
2021/04/03 05:52:06;;;;;;;29.27;5.27;;;6.60;99.90;;;;;;5033297;28;20466;-79
2021/04/03 05:54:37;;;;;;;20.55;3.25;;;6.50;99.90;;;;;;5033458;28;20091;-79
2021/04/03 05:57:05;;;;;;;33.28;4.82;;;6.50;99.90;;;;;;5034495;28;20071;-79
2021/04/03 05:59:31;;;;;;;28.25;3.85;;;6.40;99.90;;;;;;5036188;28;20832;-80
2021/04/03 06:01:56;;;;;;;35.78;5.00;;;6.50;99.90;;;;;;5052138;28;20108;-79
2021/04/03 06:04:22;;;;;;;26.90;3.58;;;6.40;99.90;;;;;;5052355;28;20029;-81
2021/04/03 06:06:49;;;;;;;23.40;5.40;;;6.50;99.90;;;;;;5048444;28;20021;-79
2021/04/03 06:09:14;;;;;;;30.08;4.70;;;6.50;99.90;;;;;;5037932;28;20033;-77
2021/04/03 06:11:50;;;;;;;31.25;3.97;;;6.50;99.90;;;;;;5035593;28;20036;-78
2021/04/03 06:14:17;;;;;;;30.60;3.28;;;6.50;99.90;;;;;;5034587;28;20051;-78
2021/04/03 06:16:49;;;;;;;20.90;3.75;;;6.50;99.90;;;;;;5033039;28;20052;-76
2021/04/03 06:19:22;;;;;;;27.92;4.45;;;6.50;99.90;;;;;;5033421;28;20121;-78
2021/04/03 06:22:00;;;;;;;26.73;4.25;;;6.50;99.90;;;;;;5031726;28;20068;-78
2021/04/03 06:24:29;;;;;;;33.15;4.30;;;6.50;99.90;;;;;;5031179;28;20029;-78
2021/04/03 06:27:12;;;;;;;26.13;3.90;;;6.50;99.90;;;;;;5031544;28;20037;-79
2021/04/03 06:29:45;;;;;;;33.78;5.05;;;6.50;99.90;;;;;;5031401;28;20387;-78
2021/04/03 06:32:23;;;;;;;37.25;4.95;;;6.60;99.90;;;;;;5033317;28;20028;-79
2021/04/03 06:34:50;;;;;;;17.00;3.28;;;6.60;99.90;;;;;;5032883;28;20028;-78
2021/04/03 06:37:26;;;;;;;37.80;5.90;;;6.60;99.90;;;;;;5032966;28;20104;-79
2021/04/03 06:39:57;;;;;;;25.55;3.65;;;6.70;99.90;;;;;;5032283;28;20033;-79
2021/04/03 06:42:55;;;;;;;33.00;5.50;;;6.70;99.90;;;;;;5035757;28;20030;-78
2021/04/03 06:45:32;;;;;;;26.02;3.53;;;6.80;99.90;;;;;;5036045;28;20362;-77
2021/04/03 06:48:06;;;;;;;30.00;4.78;;;6.90;99.90;;;;;;5035207;28;20029;-77
2021/04/03 06:50:36;;;;;;;41.22;5.35;;;7.00;99.90;;;;;;5035226;28;20037;-78
2021/04/03 06:53:13;;;;;;;29.92;3.50;;;7.10;99.90;;;;;;5051049;28;20048;-80
2021/04/03 06:55:40;;;;;;;41.03;4.60;;;7.20;99.90;;;;;;5034897;28;20026;-79
2021/04/03 06:58:07;;;;;;;30.35;3.00;;;7.30;99.90;;;;;;5035174;28;20091;-81
2021/04/03 07:00:35;;;;;;;39.60;4.25;;;7.40;99.90;;;;;;5035634;28;20370;-78
2021/04/03 07:03:17;;;;;;;47.67;7.07;;;7.50;99.90;;;;;;5035826;28;20085;-78
2021/04/03 07:05:45;;;;;;;50.33;4.50;;;7.60;99.90;;;;;;5036102;28;20026;-79
2021/04/03 07:08:10;;;;;;;31.92;4.43;;;7.60;99.90;;;;;;5036038;28;20036;-78
2021/04/03 07:10:37;;;;;;;28.98;2.80;;;7.60;99.90;;;;;;5034547;28;20112;-78
2021/04/03 07:13:04;;;;;;;21.92;3.45;;;7.60;99.90;;;;;;5036118;28;20036;-78
2021/04/03 07:15:30;;;;;;;19.38;4.15;;;7.70;99.90;;;;;;5035821;28;20025;-79
2021/04/03 07:17:57;;;;;;;22.42;4.22;;;7.80;99.90;;;;;;5036484;28;20067;-78
2021/04/03 07:20:24;;;;;;;19.40;2.95;;;7.80;99.90;;;;;;5035857;28;20030;-78
2021/04/03 07:23:05;;;;;;;27.80;3.75;;;8.10;99.90;;;;;;5035931;28;20035;-79
2021/04/03 07:25:33;;;;;;;26.58;3.97;;;8.10;99.90;;;;;;5026374;28;20032;-79
2021/04/03 07:27:59;;;;;;;27.63;3.20;;;8.20;99.90;;;;;;5035895;28;20017;-78
2021/04/03 07:30:46;;;;;;;25.77;3.97;;;8.20;99.90;;;;;;5033967;28;20018;-79
2021/04/03 07:33:19;;;;;;;25.67;4.57;;;8.20;99.90;;;;;;5035646;28;20112;-80
2021/04/03 07:35:59;;;;;;;40.15;4.75;;;8.20;99.90;;;;;;5036018;28;20029;-80
2021/04/03 07:38:30;;;;;;;24.08;4.15;;;8.30;99.90;;;;;;5035060;28;20014;-79
2021/04/03 07:41:10;;;;;;;36.25;3.90;;;8.30;99.90;;;;;;5035939;28;20474;-78
2021/04/03 07:43:44;;;;;;;22.63;4.18;;;8.20;99.90;;;;;;5034368;28;20116;-79
2021/04/03 07:46:26;;;;;;;19.45;3.30;;;8.20;99.90;;;;;;5032590;28;20040;-79
2021/04/03 07:48:59;;;;;;;28.60;5.13;;;8.30;99.90;;;;;;5017409;28;20041;-79
2021/04/03 07:51:25;;;;;;;25.25;4.43;;;8.40;99.90;;;;;;5035552;28;20053;-78
2021/04/03 07:53:56;;;;;;;21.90;3.28;;;8.50;99.90;;;;;;5034106;28;20489;-79
2021/04/03 07:56:23;;;;;;;22.23;3.63;;;8.50;99.90;;;;;;5034796;28;20466;-79
2021/04/03 07:58:51;;;;;;;24.27;3.83;;;8.50;99.90;;;;;;5033775;28;20021;-78
2021/04/03 08:01:18;;;;;;;29.10;2.60;;;8.40;99.90;;;;;;5033626;28;20077;-79
2021/04/03 08:04:00;;;;;;;20.50;3.63;;;8.40;99.90;;;;;;5034914;28;20041;-78
2021/04/03 08:06:38;;;;;;;17.25;3.13;;;8.70;99.90;;;;;;5038093;28;20120;-79
2021/04/03 08:09:14;;;;;;;21.63;3.45;;;9.10;99.90;;;;;;5033804;28;20052;-80
2021/04/03 08:11:44;;;;;;;21.65;3.33;;;9.20;99.90;;;;;;5047042;28;20025;-78
2021/04/03 08:14:11;;;;;;;14.98;2.75;;;9.30;99.90;;;;;;5052620;28;20432;-78
2021/04/03 08:16:37;;;;;;;16.75;2.83;;;9.30;99.90;;;;;;5034984;28;20017;-79
2021/04/03 08:19:03;;;;;;;23.88;3.35;;;9.30;99.90;;;;;;5033915;28;20026;-76
2021/04/03 08:21:39;;;;;;;23.50;4.50;;;9.30;99.90;;;;;;5040324;28;20025;-80
2021/04/03 08:24:06;;;;;;;24.63;3.75;;;9.20;99.90;;;;;;5035602;28;20018;-80
2021/04/03 08:26:37;;;;;;;25.38;3.17;;;9.20;99.90;;;;;;5042489;28;20033;-80
2021/04/03 08:29:03;;;;;;;18.10;3.03;;;9.00;99.90;;;;;;5042353;28;20028;-82
2021/04/03 08:31:30;;;;;;;17.00;2.67;;;9.10;99.90;;;;;;5039680;28;20021;-82
2021/04/03 08:34:03;;;;;;;17.60;3.50;;;9.10;99.90;;;;;;5043511;28;20060;-79
2021/04/03 08:36:32;;;;;;;26.85;3.28;;;9.20;99.90;;;;;;5042895;28;20135;-79
2021/04/03 08:39:03;;;;;;;23.40;3.67;;;9.20;99.90;;;;;;5067648;28;20028;-81
2021/04/03 08:41:29;;;;;;;17.58;3.17;;;9.20;99.90;;;;;;5036505;28;20057;-79
2021/04/03 08:43:56;;;;;;;20.00;3.22;;;9.30;99.90;;;;;;5038389;28;20057;-79
2021/04/03 08:46:23;;;;;;;24.03;3.00;;;9.30;99.90;;;;;;5034347;28;20037;-77
2021/04/03 08:48:58;;;;;;;11.37;3.73;;;9.30;99.90;;;;;;5039013;28;20037;-79
2021/04/03 08:51:25;;;;;;;19.73;3.85;;;9.30;99.90;;;;;;5032623;28;20029;-78
2021/04/03 08:53:54;;;;;;;20.42;3.22;;;9.40;99.90;;;;;;5030449;28;20060;-80
2021/04/03 08:56:40;;;;;;;27.23;5.20;;;9.50;99.90;;;;;;5031834;28;20045;-79
2021/04/03 08:59:15;;;;;;;18.85;3.40;;;9.70;99.90;;;;;;5032761;28;20041;-78
2021/04/03 09:01:44;;;;;;;19.77;3.00;;;9.60;99.90;;;;;;5033347;28;20029;-78
2021/04/03 09:04:11;;;;;;;18.05;2.60;;;9.80;99.90;;;;;;5032250;28;20065;-78
2021/04/03 09:06:47;;;;;;;12.63;2.83;;;9.80;99.90;;;;;;5034199;28;20382;-80
2021/04/03 09:09:20;;;;;;;21.10;3.25;;;10.00;99.90;;;;;;5032473;28;20033;-79
2021/04/03 09:12:06;;;;;;;23.60;4.07;;;10.10;99.90;;;;;;5048643;28;20017;-78
2021/04/03 09:14:54;;;;;;;11.48;2.67;;;10.10;99.90;;;;;;5030116;28;20021;-74
2021/04/03 09:17:24;;;;;;;22.48;3.85;;;9.80;99.90;;;;;;5035060;28;20022;-73
2021/04/03 09:19:51;;;;;;;28.48;2.83;;;10.00;99.90;;;;;;5035429;28;20462;-75
2021/04/03 09:22:19;;;;;;;21.40;3.10;;;10.00;99.90;;;;;;5034991;28;20017;-81
2021/04/03 09:24:56;;;;;;;21.33;3.65;;;10.20;99.90;;;;;;5029011;28;20479;-82
2021/04/03 09:27:22;;;;;;;19.83;2.97;;;10.30;99.90;;;;;;5033970;28;20029;-81
2021/04/03 09:29:54;;;;;;;15.27;2.72;;;10.10;99.90;;;;;;5035949;28;20049;-77
2021/04/03 09:32:19;;;;;;;25.52;2.97;;;10.40;99.90;;;;;;5050818;28;20076;-79
2021/04/03 09:34:45;;;;;;;13.82;3.42;;;10.50;99.90;;;;;;5038006;28;20018;-80
2021/04/03 09:37:21;;;;;;;16.77;2.33;;;10.50;99.90;;;;;;5037314;28;20100;-80
2021/04/03 09:39:48;;;;;;;21.45;2.72;;;10.50;99.90;;;;;;5037549;28;20470;-81
2021/04/03 09:42:16;;;;;;;31.23;3.47;;;10.40;99.90;;;;;;5041360;28;20173;-80
2021/04/03 09:44:42;;;;;;;15.98;2.70;;;10.40;99.90;;;;;;5035356;28;20030;-79
2021/04/03 09:47:08;;;;;;;18.10;2.65;;;10.30;99.90;;;;;;5041133;28;20112;-81
2021/04/03 09:49:35;;;;;;;20.90;3.10;;;10.20;99.90;;;;;;5036904;28;20029;-78
2021/04/03 09:52:01;;;;;;;17.80;3.08;;;10.10;99.90;;;;;;5038753;28;20029;-78
2021/04/03 09:54:27;;;;;;;19.67;3.50;;;10.10;99.90;;;;;;5038781;28;20026;-81
2021/04/03 09:56:52;;;;;;;16.52;2.70;;;10.10;99.90;;;;;;5039638;28;20111;-80
2021/04/03 09:59:18;;;;;;;17.88;3.53;;;10.20;99.90;;;;;;5050301;28;20017;-81
2021/04/03 10:01:44;;;;;;;40.05;3.15;;;10.40;99.90;;;;;;5051310;28;20486;-81
2021/04/03 10:04:09;;;;;;;14.73;4.47;;;10.70;99.90;;;;;;5053779;28;20057;-81
2021/04/03 10:06:35;;;;;;;18.98;2.88;;;11.00;99.90;;;;;;5041740;28;20390;-80
2021/04/03 10:09:00;;;;;;;16.75;2.60;;;11.40;99.90;;;;;;5057346;28;20030;-81
2021/04/03 10:11:26;;;;;;;22.17;2.75;;;11.60;99.90;;;;;;5038748;28;20522;-81
2021/04/03 10:13:52;;;;;;;22.25;2.92;;;11.80;99.90;;;;;;5043080;28;20028;-81
2021/04/03 10:16:18;;;;;;;29.58;3.05;;;11.60;99.90;;;;;;5050315;28;20021;-80
2021/04/03 10:18:44;;;;;;;25.42;2.65;;;11.30;99.90;;;;;;5044898;28;20043;-81
2021/04/03 10:21:10;;;;;;;18.60;2.90;;;11.00;99.90;;;;;;5046104;28;20096;-78
2021/04/03 10:23:36;;;;;;;19.70;3.40;;;10.90;99.90;;;;;;5045974;28;20064;-79
2021/04/03 10:26:02;;;;;;;24.67;3.03;;;10.90;99.90;;;;;;5039234;28;20022;-79
2021/04/03 10:28:28;;;;;;;17.40;2.88;;;10.70;99.90;;;;;;5042718;28;20037;-79
2021/04/03 10:30:54;;;;;;;28.98;5.43;;;10.50;99.90;;;;;;5053900;28;20040;-77
2021/04/03 10:33:20;;;;;;;30.17;3.47;;;10.30;99.90;;;;;;5043528;28;20022;-76
2021/04/03 10:35:45;;;;;;;13.80;2.90;;;10.20;99.90;;;;;;5040245;28;20046;-80
2021/04/03 10:38:11;;;;;;;18.48;3.42;;;10.20;99.90;;;;;;5037531;28;20025;-79
2021/04/03 10:40:37;;;;;;;26.85;4.53;;;10.30;99.90;;;;;;5043630;28;20069;-79
2021/04/03 10:43:02;;;;;;;20.90;3.08;;;10.50;99.90;;;;;;5032199;28;20029;-77
2021/04/03 10:45:28;;;;;;;20.42;2.70;;;10.40;99.90;;;;;;5046050;28;20057;-82
2021/04/03 10:47:54;;;;;;;16.35;2.22;;;10.60;99.90;;;;;;5041622;28;20069;-80
2021/04/03 10:50:19;;;;;;;18.33;2.67;;;11.00;99.90;;;;;;5043815;28;20071;-81
2021/04/03 10:52:45;;;;;;;13.65;2.05;;;11.10;99.90;;;;;;5039233;28;20028;-80
2021/04/03 10:55:11;;;;;;;17.67;3.65;;;11.20;99.90;;;;;;5040686;28;20032;-80
2021/04/03 10:57:37;;;;;;;13.07;2.80;;;11.40;99.90;;;;;;5043954;28;20002;-81
2021/04/03 11:00:05;;;;;;;14.88;3.15;;;11.40;99.90;;;;;;5040906;28;20037;-79
2021/04/03 11:02:30;;;;;;;18.20;2.40;;;11.80;99.90;;;;;;5043544;28;20017;-82
2021/04/03 11:04:56;;;;;;;19.40;3.75;;;12.10;99.90;;;;;;5050269;28;20044;-80
2021/04/03 11:07:22;;;;;;;19.90;3.67;;;12.20;99.90;;;;;;5037963;28;20032;-83
2021/04/03 11:09:47;;;;;;;23.27;3.40;;;11.90;99.90;;;;;;5024228;28;20040;-83
2021/04/03 11:12:14;;;;;;;20.65;4.13;;;11.80;99.90;;;;;;5038391;28;20080;-81
2021/04/03 11:14:43;;;;;;;18.05;2.70;;;11.70;99.90;;;;;;5037895;28;20028;-79
2021/04/03 11:17:10;;;;;;;17.52;2.53;;;11.60;99.90;;;;;;5039494;28;20032;-81
2021/04/03 11:19:36;;;;;;;25.95;4.35;;;11.40;99.90;;;;;;5039398;28;20090;-79
2021/04/03 11:22:02;;;;;;;21.02;3.15;;;11.10;99.90;;;;;;5031164;28;20428;-77
2021/04/03 11:24:28;;;;;;;17.55;3.47;;;11.10;99.90;;;;;;5027529;28;20053;-77
2021/04/03 11:26:54;;;;;;;13.02;2.50;;;11.10;99.90;;;;;;5044649;28;20063;-72
2021/04/03 11:29:19;;;;;;;19.60;2.92;;;11.00;99.90;;;;;;5033866;28;20430;-77
2021/04/03 11:31:45;;;;;;;22.23;3.00;;;11.10;99.90;;;;;;5032662;28;20053;-79
2021/04/03 11:34:10;;;;;;;17.73;2.97;;;10.90;99.90;;;;;;5030106;28;20037;-82
2021/04/03 11:36:36;;;;;;;18.08;3.75;;;11.20;99.90;;;;;;5051029;28;20401;-78
2021/04/03 11:39:03;;;;;;;21.15;3.92;;;11.40;99.90;;;;;;5033158;28;20026;-79
2021/04/03 11:41:29;;;;;;;16.30;2.43;;;11.60;99.90;;;;;;5031702;28;20055;-81
2021/04/03 11:43:56;;;;;;;11.05;1.90;;;11.80;99.90;;;;;;5039502;28;20029;-73
2021/04/03 11:46:21;;;;;;;17.57;3.20;;;12.20;99.90;;;;;;5038528;28;20038;-79
2021/04/03 11:48:47;;;;;;;23.23;4.70;;;12.30;99.90;;;;;;5034733;28;20087;-80
2021/04/03 11:51:13;;;;;;;16.45;2.97;;;12.10;99.90;;;;;;5034915;28;20052;-76
2021/04/03 11:53:39;;;;;;;24.58;2.90;;;11.70;99.90;;;;;;5041787;28;20025;-75
2021/04/03 11:56:05;;;;;;;21.15;2.97;;;11.80;99.90;;;;;;5043310;28;20017;-76
2021/04/03 11:58:30;;;;;;;22.23;2.67;;;11.70;99.90;;;;;;5037234;28;20052;-78
2021/04/03 12:00:56;;;;;;;20.40;3.22;;;12.10;99.90;;;;;;5034394;28;20116;-73
2021/04/03 12:03:22;;;;;;;13.82;2.33;;;12.20;99.90;;;;;;5033740;28;20103;-76
2021/04/03 12:05:47;;;;;;;14.73;2.05;;;12.40;99.90;;;;;;5035982;28;20076;-74
2021/04/03 12:08:13;;;;;;;19.48;2.75;;;12.50;99.90;;;;;;5035693;28;20041;-76
2021/04/03 12:10:38;;;;;;;24.85;3.03;;;12.80;99.90;;;;;;5046632;28;20049;-81
2021/04/03 12:13:04;;;;;;;18.90;2.65;;;12.70;99.60;;;;;;5053020;28;20115;-81
2021/04/03 12:15:30;;;;;;;23.45;2.72;;;12.50;98.90;;;;;;5043514;28;20105;-80
2021/04/03 12:17:56;;;;;;;22.73;3.13;;;12.70;98.70;;;;;;5038436;28;20539;-77
2021/04/03 12:20:22;;;;;;;16.85;3.13;;;13.00;98.60;;;;;;5038773;28;20018;-79
2021/04/03 12:22:47;;;;;;;20.58;3.35;;;12.90;99.00;;;;;;5041774;28;20033;-81
2021/04/03 12:25:14;;;;;;;15.85;3.10;;;12.50;99.60;;;;;;5041260;28;20017;-79
2021/04/03 12:27:40;;;;;;;12.05;2.25;;;12.20;99.90;;;;;;5043793;28;20124;-78
2021/04/03 12:30:06;;;;;;;18.70;3.63;;;12.30;99.90;;;;;;5037049;28;20041;-82
2021/04/03 12:32:32;;;;;;;27.85;3.25;;;12.00;99.90;;;;;;5044411;28;20021;-80
2021/04/03 12:34:58;;;;;;;17.80;3.63;;;11.90;99.90;;;;;;5041021;28;20498;-80
2021/04/03 12:37:24;;;;;;;24.52;3.13;;;11.70;99.90;;;;;;5043310;28;20113;-79
2021/04/03 12:39:49;;;;;;;15.10;3.35;;;11.60;99.90;;;;;;5045136;28;20037;-81
2021/04/03 12:42:15;;;;;;;16.02;2.83;;;11.50;99.90;;;;;;5038686;28;20386;-80
2021/04/03 12:44:41;;;;;;;16.40;2.63;;;11.40;99.90;;;;;;5044361;28;20508;-81
2021/04/03 12:47:07;;;;;;;17.15;3.30;;;11.80;99.90;;;;;;5054401;28;20021;-79
2021/04/03 12:49:33;;;;;;;19.25;3.17;;;12.10;99.80;;;;;;5054167;28;20032;-80
2021/04/03 12:51:59;;;;;;;24.65;3.20;;;12.10;99.50;;;;;;5056495;28;20029;-78